Time;durP1;ratioP1;P1;durP2;ratioP2;P2;SDS_P1;SDS_P2;PMS_P1;PMS_P2;Temp;Humidity;BMP_temperature;BMP_pressure;BME280_temperature;BME280_humidity;BME280_pressure;Samples;Min_cycle;Max_cycle;Signal;HPM_P1;HPM_P2
2022/10/25 00:02:14;;;;;;;;;;;12.00;99.90;;;;;;5065970;28;19924;-71
2022/10/25 00:04:39;;;;;;;;;;;12.10;99.90;;;;;;5063003;28;19924;-71
2022/10/25 00:07:05;;;;;;;;;;;12.10;99.90;;;;;;5065296;28;19924;-71
2022/10/25 00:09:30;;;;;;;;;;;12.20;99.90;;;;;;5049285;28;19927;-71
2022/10/25 00:11:56;;;;;;;;;;;12.30;99.90;;;;;;5069686;28;19924;-71
2022/10/25 00:14:21;;;;;;;;;;;12.20;99.90;;;;;;5062963;28;20383;-71
2022/10/25 00:16:47;;;;;;;;;;;12.50;99.90;;;;;;5046356;28;20419;-71
2022/10/25 00:19:16;;;;;;;;;;;12.50;99.90;;;;;;5047064;28;19927;-71
2022/10/25 00:21:44;;;;;;;;;;;12.40;99.90;;;;;;5045281;28;20384;-71
2022/10/25 00:24:11;;;;;;;;;;;12.50;99.90;;;;;;5048063;28;19948;-71
2022/10/25 00:26:39;;;;;;;;;;;12.50;99.90;;;;;;5044356;28;20370;-71
2022/10/25 00:29:04;;;;;;;;;;;12.50;99.90;;;;;;5051529;28;20363;-72
2022/10/25 00:31:30;;;;;;;;;;;12.60;99.90;;;;;;5044194;28;19928;-71
2022/10/25 00:33:55;;;;;;;;;;;12.60;99.90;;;;;;5046772;28;20027;-71
2022/10/25 00:36:22;;;;;;;;;;;12.70;99.90;;;;;;5051326;28;19928;-72
2022/10/25 00:38:48;;;;;;;;;;;12.60;99.90;;;;;;5054041;28;20391;-72
2022/10/25 00:41:15;;;;;;;;;;;12.50;99.90;;;;;;5072121;28;19921;-72
2022/10/25 00:43:40;;;;;;;;;;;12.60;99.90;;;;;;5046331;28;19987;-72
2022/10/25 00:46:11;;;;;;;;;;;12.70;99.90;;;;;;5062992;28;20380;-72
2022/10/25 00:48:37;;;;;;;;;;;12.70;99.90;;;;;;5064310;28;19975;-72
2022/10/25 00:51:03;;;;;;;;;;;12.80;99.90;;;;;;5047018;28;19967;-72
2022/10/25 00:53:31;;;;;;;;;;;12.70;99.90;;;;;;5043883;28;19950;-72
2022/10/25 00:56:17;;;;;;;;;;;12.70;99.90;;;;;;5060989;28;20396;-72
2022/10/25 00:58:44;;;;;;;;;;;12.80;99.90;;;;;;5070082;28;19965;-72
2022/10/25 01:01:10;;;;;;;;;;;12.60;99.90;;;;;;5050526;28;20373;-73
2022/10/25 01:03:46;;;;;;;;;;;12.60;99.90;;;;;;5045050;28;19973;-72
2022/10/25 01:06:28;;;;;;;;;;;12.70;99.90;;;;;;5045088;28;19990;-72
2022/10/25 01:08:54;;;;;;;;;;;12.70;99.90;;;;;;5060965;28;19974;-72
2022/10/25 01:11:20;;;;;;;;;;;12.70;99.90;;;;;;5046671;28;20007;-72
2022/10/25 01:13:46;;;;;;;;;;;12.70;99.90;;;;;;5070947;28;19942;-72
2022/10/25 01:16:27;;;;;;;;;;;12.70;99.90;;;;;;5050311;28;19983;-72
2022/10/25 01:19:04;;;;;;;;;;;12.60;99.90;;;;;;5043766;28;19928;-72
2022/10/25 01:21:40;;;;;;;;;;;12.70;99.90;;;;;;5044815;28;19920;-72
2022/10/25 01:24:12;;;;;;;;;;;12.70;99.90;;;;;;5060196;28;20288;-72
2022/10/25 01:26:55;;;;;;;;;;;12.70;99.90;;;;;;5067846;28;20015;-72
2022/10/25 01:29:27;;;;;;;;;;;12.60;99.90;;;;;;5064657;28;19921;-72
2022/10/25 01:31:52;;;;;;;;;;;12.60;99.90;;;;;;5045493;28;19928;-72
2022/10/25 01:34:18;;;;;;;;;;;12.50;99.90;;;;;;5064203;28;19992;-72
2022/10/25 01:37:05;;;;;;;;;;;12.50;99.90;;;;;;5061776;28;19920;-72
2022/10/25 01:39:32;;;;;;;;;;;12.60;99.90;;;;;;5061937;28;19943;-72
2022/10/25 01:42:11;;;;;;;;;;;12.60;99.90;;;;;;5046322;28;19921;-73
2022/10/25 01:44:48;;;;;;;;;;;12.60;99.90;;;;;;5042957;28;19999;-72
2022/10/25 01:47:20;;;;;;;;;;;12.60;99.90;;;;;;5046711;28;19924;-72
2022/10/25 01:49:47;;;;;;;;;;;12.60;99.90;;;;;;5060834;28;20372;-73
2022/10/25 01:52:16;;;;;;;;;;;12.60;99.90;;;;;;5066712;28;19991;-72
2022/10/25 01:54:42;;;;;;;;;;;12.60;99.90;;;;;;5064149;28;19916;-72
2022/10/25 01:57:23;;;;;;;;;;;12.60;99.90;;;;;;5062070;28;19926;-73
2022/10/25 02:00:07;;;;;;;;;;;12.60;99.90;;;;;;5059866;28;20102;-71
2022/10/25 02:02:35;;;;;;;;;;;12.70;99.90;;;;;;5047443;28;19920;-72
2022/10/25 02:05:12;;;;;;;;;;;12.70;99.90;;;;;;5065675;28;20015;-72
2022/10/25 02:07:41;;;;;;;;;;;12.60;99.90;;;;;;5048993;28;20360;-72
2022/10/25 02:10:08;;;;;;;;;;;12.60;99.90;;;;;;5063892;28;19917;-72
2022/10/25 02:12:49;;;;;;;;;;;12.60;99.90;;;;;;5060590;28;19927;-72
2022/10/25 02:15:17;;;;;;;;;;;12.60;99.90;;;;;;5043001;28;20011;-72
2022/10/25 02:17:47;;;;;;;;;;;12.50;99.90;;;;;;5044919;28;20418;-72
2022/10/25 02:20:14;;;;;;;;;;;12.50;99.90;;;;;;5059878;28;19928;-73
2022/10/25 02:22:40;;;;;;;;;;;12.50;99.90;;;;;;5063075;28;19971;-72
2022/10/25 02:25:07;;;;;;;;;;;12.40;99.90;;;;;;5043059;28;19963;-72
2022/10/25 02:27:34;;;;;;;;;;;12.50;99.90;;;;;;5062017;28;19964;-72
2022/10/25 02:30:00;;;;;;;;;;;12.40;99.90;;;;;;5043646;28;19920;-72
2022/10/25 02:32:26;;;;;;;;;;;12.50;99.90;;;;;;5045651;28;20372;-72
2022/10/25 02:34:51;;;;;;;;;;;12.50;99.90;;;;;;5042938;28;19962;-72
2022/10/25 02:37:17;;;;;;;;;;;12.40;99.90;;;;;;5044618;28;19920;-72
2022/10/25 02:39:43;;;;;;;;;;;12.50;99.90;;;;;;5042304;28;19999;-72
2022/10/25 02:42:12;;;;;;;;;;;12.50;99.90;;;;;;5048157;28;19920;-72
2022/10/25 02:44:37;;;;;;;;;;;12.40;99.90;;;;;;5059735;28;19921;-72
2022/10/25 02:47:03;;;;;;;;;;;12.40;99.90;;;;;;5063426;28;19942;-72
2022/10/25 02:49:28;;;;;;;;;;;12.40;99.90;;;;;;5059894;28;19924;-72
2022/10/25 02:51:56;;;;;;;;;;;12.30;99.90;;;;;;5063808;28;19968;-72
2022/10/25 02:54:22;;;;;;;;;;;12.30;99.90;;;;;;5060931;28;19925;-73
2022/10/25 02:56:51;;;;;;;;;;;12.20;99.90;;;;;;5062457;28;19947;-73
2022/10/25 02:59:17;;;;;;;;;;;12.30;99.90;;;;;;5061099;28;19933;-72
2022/10/25 03:01:43;;;;;;;;;;;12.20;99.90;;;;;;5048192;28;19927;-72
2022/10/25 03:04:08;;;;;;;;;;;12.20;99.90;;;;;;5060001;28;19924;-72
2022/10/25 03:06:34;;;;;;;;;;;12.20;99.90;;;;;;5063268;28;19931;-73
2022/10/25 03:08:59;;;;;;;;;;;12.10;99.90;;;;;;5059501;28;19921;-73
2022/10/25 03:11:25;;;;;;;;;;;12.30;99.90;;;;;;5045361;28;19920;-72
2022/10/25 03:13:50;;;;;;;;;;;12.00;99.90;;;;;;5045954;28;19928;-72
2022/10/25 03:16:16;;;;;;;;;;;12.00;99.90;;;;;;5064687;28;19920;-72
2022/10/25 03:18:42;;;;;;;;;;;11.10;99.90;;;;;;5042753;28;19920;-72
2022/10/25 03:21:07;;;;;;;;;;;11.90;99.90;;;;;;5045068;28;19956;-72
2022/10/25 03:23:33;;;;;;;;;;;11.80;99.90;;;;;;5060167;28;20011;-72
2022/10/25 03:26:01;;;;;;;;;;;11.80;99.90;;;;;;5065517;28;19972;-72
2022/10/25 03:28:27;;;;;;;;;;;11.70;99.90;;;;;;5065041;28;19920;-73
2022/10/25 03:30:53;;;;;;;;;;;11.70;99.90;;;;;;5052094;28;19951;-72
2022/10/25 03:33:18;;;;;;;;;;;11.70;99.90;;;;;;5068483;28;19925;-73
2022/10/25 03:35:44;;;;;;;;;;;11.70;99.90;;;;;;5065136;28;20364;-73
2022/10/25 03:38:10;;;;;;;;;;;11.70;99.90;;;;;;5065423;28;19927;-72
2022/10/25 03:40:36;;;;;;;;;;;11.70;99.90;;;;;;5063283;28;19920;-72
2022/10/25 03:43:01;;;;;;;;;;;11.70;99.90;;;;;;5066791;28;19921;-72
2022/10/25 03:45:27;;;;;;;;;;;11.60;99.90;;;;;;5047434;28;19966;-72
2022/10/25 03:47:52;;;;;;;;;;;11.70;99.90;;;;;;5050178;28;19962;-72
2022/10/25 03:50:18;;;;;;;;;;;11.70;99.90;;;;;;5047055;28;20288;-72
2022/10/25 03:52:43;;;;;;;;;;;11.80;99.90;;;;;;5046736;28;19920;-72
2022/10/25 03:55:09;;;;;;;;;;;11.80;99.90;;;;;;5064765;28;19920;-73
2022/10/25 03:57:34;;;;;;;;;;;11.70;99.90;;;;;;5047703;28;19943;-73
2022/10/25 04:00:00;;;;;;;;;;;11.60;99.90;;;;;;5062569;28;19927;-73
2022/10/25 04:02:26;;;;;;;;;;;11.60;99.90;;;;;;5051859;28;20287;-70
2022/10/25 04:04:51;;;;;;;;;;;11.50;99.90;;;;;;5044593;28;20403;-72
2022/10/25 04:07:17;;;;;;;;;;;11.60;99.90;;;;;;5065547;28;19928;-73
2022/10/25 04:09:43;;;;;;;;;;;11.60;99.90;;;;;;5064465;28;20411;-73
2022/10/25 04:12:08;;;;;;;;;;;11.60;99.90;;;;;;5065883;28;19925;-73
2022/10/25 04:14:34;;;;;;;;;;;11.50;99.90;;;;;;5067669;28;19921;-73
2022/10/25 04:16:59;;;;;;;;;;;11.50;99.90;;;;;;5048085;28;19938;-73
2022/10/25 04:19:25;;;;;;;;;;;11.50;99.90;;;;;;5063339;28;20291;-73
2022/10/25 04:21:50;;;;;;;;;;;11.90;99.90;;;;;;5069512;28;19920;-73
2022/10/25 04:24:16;;;;;;;;;;;11.60;99.90;;;;;;5062794;28;20388;-71
2022/10/25 04:26:42;;;;;;;;;;;11.60;99.90;;;;;;5046589;28;19944;-70
2022/10/25 04:29:09;;;;;;;;;;;11.50;99.90;;;;;;5063656;28;20394;-70
2022/10/25 04:31:37;;;;;;;;;;;11.50;99.90;;;;;;5063629;28;19928;-71
2022/10/25 04:34:02;;;;;;;;;;;11.50;99.90;;;;;;5063723;28;19924;-72
2022/10/25 04:36:29;;;;;;;;;;;11.40;99.90;;;;;;5047093;28;19924;-71
2022/10/25 04:38:55;;;;;;;;;;;11.40;99.90;;;;;;5065225;28;19927;-72
2022/10/25 04:41:21;;;;;;;;;;;11.40;99.90;;;;;;5042827;28;19924;-72
2022/10/25 04:43:49;;;;;;;;;;;11.30;99.90;;;;;;5065671;28;19932;-71
2022/10/25 04:46:15;;;;;;;;;;;11.30;99.90;;;;;;5065300;28;19924;-71
2022/10/25 04:48:41;;;;;;;;;;;11.30;99.90;;;;;;5065654;28;19983;-72
2022/10/25 04:51:07;;;;;;;;;;;11.80;99.90;;;;;;5045043;28;19924;-71
2022/10/25 04:53:36;;;;;;;;;;;11.30;99.90;;;;;;5043161;28;19920;-71
2022/10/25 04:56:05;;;;;;;;;;;11.30;99.90;;;;;;5064288;28;19921;-72
2022/10/25 04:58:34;;;;;;;;;;;11.30;99.90;;;;;;5045475;28;19920;-71
2022/10/25 05:01:02;;;;;;;;;;;11.20;99.90;;;;;;5062723;28;19975;-71
2022/10/25 05:03:31;;;;;;;;;;;11.50;99.90;;;;;;5065283;28;19920;-72
2022/10/25 05:06:13;;;;;;;;;;;11.30;99.90;;;;;;5063317;28;19921;-71
2022/10/25 05:08:39;;;;;;;;;;;11.30;99.90;;;;;;5049855;28;19924;-72
2022/10/25 05:11:05;;;;;;;;;;;11.30;99.90;;;;;;5044633;28;19920;-72
2022/10/25 05:13:32;;;;;;;;;;;11.20;99.90;;;;;;5049047;28;19952;-72
2022/10/25 05:15:58;;;;;;;;;;;11.10;99.90;;;;;;5065773;28;20265;-71
2022/10/25 05:18:23;;;;;;;;;;;11.10;99.90;;;;;;5065353;28;19927;-71
2022/10/25 05:20:56;;;;;;;;;;;11.10;99.90;;;;;;5064514;28;20286;-71
2022/10/25 05:23:25;;;;;;;;;;;11.10;99.90;;;;;;5042859;28;19921;-71
2022/10/25 05:26:00;;;;;;;;;;;11.10;99.90;;;;;;5045998;28;20375;-72
2022/10/25 05:28:26;;;;;;;;;;;11.10;99.90;;;;;;5065469;28;19916;-71
2022/10/25 05:30:51;;;;;;;;;;;11.10;99.90;;;;;;5043438;28;19975;-72
2022/10/25 05:33:17;;;;;;;;;;;11.00;99.90;;;;;;5045838;28;19960;-72
2022/10/25 05:35:45;;;;;;;;;;;11.10;99.90;;;;;;5043326;28;19921;-72
2022/10/25 05:38:14;;;;;;;;;;;11.20;99.90;;;;;;5063046;28;20706;-72
2022/10/25 05:40:40;;;;;;;;;;;11.10;99.90;;;;;;5043251;28;19975;-72
2022/10/25 05:43:06;;;;;;;;;;;11.20;99.90;;;;;;5045774;28;19928;-72
2022/10/25 05:45:31;;;;;;;;;;;11.80;99.90;;;;;;5062377;28;19921;-73
2022/10/25 05:47:57;;;;;;;;;;;11.20;99.90;;;;;;5060673;28;19923;-75
2022/10/25 05:50:23;;;;;;;;;;;11.30;99.90;;;;;;5046165;28;19965;-74
2022/10/25 05:52:48;;;;;;;;;;;11.20;99.90;;;;;;5065521;28;19950;-77
2022/10/25 05:55:14;;;;;;;;;;;11.20;99.90;;;;;;5063770;28;19927;-74
2022/10/25 05:57:39;;;;;;;;;;;11.20;99.90;;;;;;5064788;28;21032;-75
2022/10/25 06:00:05;;;;;;;;;;;11.20;99.90;;;;;;5043657;28;20295;-81
2022/10/25 06:02:31;;;;;;;;;;;11.20;99.90;;;;;;5063723;28;19920;-76
2022/10/25 06:04:56;;;;;;;;;;;11.10;99.90;;;;;;5063892;28;20385;-81
2022/10/25 06:07:22;;;;;;;;;;;11.10;99.90;;;;;;5044571;28;20363;-79
2022/10/25 06:09:47;;;;;;;;;;;11.10;99.90;;;;;;5062678;28;20419;-82
2022/10/25 06:12:13;;;;;;;;;;;11.10;99.90;;;;;;5044885;28;19921;-80
2022/10/25 06:14:38;;;;;;;;;;;11.10;99.90;;;;;;5065537;28;19921;-80
2022/10/25 06:17:04;;;;;;;;;;;11.50;99.90;;;;;;5062391;28;19924;-75
2022/10/25 06:19:35;;;;;;;;;;;11.00;99.90;;;;;;5054635;28;19920;-75
2022/10/25 06:22:01;;;;;;;;;;;11.00;99.90;;;;;;5059847;28;19921;-76
2022/10/25 06:24:26;;;;;;;;;;;11.00;99.90;;;;;;5043847;28;20031;-72
2022/10/25 06:26:52;;;;;;;;;;;11.00;99.90;;;;;;5065966;28;20346;-75
2022/10/25 06:29:17;;;;;;;;;;;11.40;99.90;;;;;;5063310;28;19965;-75
2022/10/25 06:31:43;;;;;;;;;;;10.90;99.90;;;;;;5061393;28;19920;-74
2022/10/25 06:34:09;;;;;;;;;;;10.80;99.90;;;;;;5044342;28;20018;-72
2022/10/25 06:36:40;;;;;;;;;;;10.90;99.90;;;;;;5042331;28;19963;-73
2022/10/25 06:39:09;;;;;;;;;;;10.80;99.90;;;;;;5044520;28;19920;-73
2022/10/25 06:41:37;;;;;;;;;;;10.90;99.90;;;;;;5060139;28;19927;-78
2022/10/25 06:44:03;;;;;;;;;;;10.70;99.90;;;;;;5064007;28;19927;-78
2022/10/25 06:46:31;;;;;;;;;;;10.80;99.90;;;;;;5062731;28;19928;-72
2022/10/25 06:48:58;;;;;;;;;;;10.80;99.90;;;;;;5059955;28;19921;-74
2022/10/25 06:51:25;;;;;;;;;;;10.80;99.90;;;;;;5063422;28;19921;-80
2022/10/25 06:53:54;;;;;;;;;;;10.90;99.90;;;;;;5059906;28;19929;-78
2022/10/25 06:56:19;;;;;;;;;;;10.90;99.90;;;;;;5043571;28;19928;-76
2022/10/25 06:58:48;;;;;;;;;;;11.00;99.90;;;;;;5061267;28;20015;-83
2022/10/25 07:01:14;;;;;;;;;;;11.00;99.90;;;;;;5062395;28;19983;-79
2022/10/25 07:03:43;;;;;;;;;;;11.00;99.90;;;;;;5065248;28;19920;-78
2022/10/25 07:06:20;;;;;;;;;;;11.00;99.90;;;;;;5044990;28;19929;-77
2022/10/25 07:08:45;;;;;;;;;;;11.10;99.90;;;;;;5054236;28;19924;-78
2022/10/25 07:11:15;;;;;;;;;;;11.20;99.90;;;;;;5050415;28;20332;-79
2022/10/25 07:13:41;;;;;;;;;;;11.20;99.90;;;;;;5064762;28;19916;-78
2022/10/25 07:16:08;;;;;;;;;;;11.20;99.90;;;;;;5050630;28;19970;-77
2022/10/25 07:18:34;;;;;;;;;;;11.30;99.90;;;;;;5054517;28;19928;-75
2022/10/25 07:21:04;;;;;;;;;;;11.30;99.90;;;;;;5067236;28;20322;-78
2022/10/25 07:23:33;;;;;;;;;;;11.40;99.90;;;;;;5065349;28;20369;-76
2022/10/25 07:25:58;;;;;;;;;;;11.50;99.90;;;;;;5066934;28;19921;-77
2022/10/25 07:28:24;;;;;;;;;;;11.70;99.90;;;;;;5049946;28;20317;-79
2022/10/25 07:30:50;;;;;;;;;;;11.80;99.90;;;;;;5052360;28;19921;-79
2022/10/25 07:33:17;;;;;;;;;;;11.90;99.90;;;;;;5046653;28;19924;-80
2022/10/25 07:35:43;;;;;;;;;;;11.90;99.90;;;;;;5066362;28;20007;-80
2022/10/25 07:38:09;;;;;;;;;;;12.00;99.90;;;;;;5063953;28;19928;-80
2022/10/25 07:40:34;;;;;;;;;;;12.00;99.90;;;;;;5069885;28;19927;-81
2022/10/25 07:43:00;;;;;;;;;;;12.10;99.90;;;;;;5061691;28;19928;-80
2022/10/25 07:45:25;;;;;;;;;;;12.30;99.90;;;;;;5066281;28;19974;-76
2022/10/25 07:47:51;;;;;;;;;;;12.30;99.90;;;;;;5062555;28;19925;-81
2022/10/25 07:50:18;;;;;;;;;;;12.40;99.90;;;;;;5068518;28;19928;-79
2022/10/25 07:52:44;;;;;;;;;;;12.70;99.90;;;;;;5074258;28;19931;-82
2022/10/25 07:55:13;;;;;;;;;;;12.70;99.90;;;;;;5044998;28;19928;-79
2022/10/25 07:57:38;;;;;;;;;;;13.30;99.90;;;;;;5065300;28;19924;-81
2022/10/25 08:00:05;;;;;;;;;;;13.50;99.90;;;;;;5061870;28;19966;-81
2022/10/25 08:02:30;;;;;;;;;;;14.00;99.90;;;;;;5061306;28;19967;-83
2022/10/25 08:04:56;;;;;;;;;;;14.50;99.90;;;;;;5065968;28;20288;-81
2022/10/25 08:07:24;;;;;;;;;;;15.00;99.90;;;;;;5059324;28;19974;-84
2022/10/25 08:09:50;;;;;;;;;;;15.50;99.90;;;;;;5047650;28;19974;-81
2022/10/25 08:12:16;;;;;;;;;;;16.10;99.90;;;;;;5046881;28;19924;-82
2022/10/25 08:14:41;;;;;;;;;;;16.70;99.90;;;;;;5061856;28;19920;-82
2022/10/25 08:17:07;;;;;;;;;;;16.80;99.90;;;;;;5066069;28;19916;-81
2022/10/25 08:19:32;;;;;;;;;;;17.30;99.90;;;;;;5045966;28;20440;-82
2022/10/25 08:21:58;;;;;;;;;;;18.00;99.90;;;;;;5050743;28;19999;-79
2022/10/25 08:24:24;;;;;;;;;;;18.90;99.90;;;;;;5047038;28;19999;-81
2022/10/25 08:26:50;;;;;;;;;;;19.10;99.90;;;;;;5043704;28;19979;-78
2022/10/25 08:29:15;;;;;;;;;;;18.50;99.90;;;;;;5049515;28;19963;-80
2022/10/25 08:31:41;;;;;;;;;;;18.00;99.90;;;;;;5047315;28;19993;-81
2022/10/25 08:34:06;;;;;;;;;;;17.40;99.90;;;;;;5062892;28;19920;-83
2022/10/25 08:36:32;;;;;;;;;;;17.60;99.90;;;;;;5065081;28;19927;-84
2022/10/25 08:38:57;;;;;;;;;;;18.20;99.90;;;;;;5063603;28;19921;-85
2022/10/25 08:41:43;;;;;;;;;;;19.10;99.90;;;;;;5040520;28;20303;-79
2022/10/25 08:44:08;;;;;;;;;;;20.00;99.90;;;;;;5061069;28;19932;-83
2022/10/25 08:46:53;;;;;;;;;;;19.90;99.90;;;;;;5046483;28;19921;-80
2022/10/25 08:49:22;;;;;;;;;;;19.50;99.90;;;;;;5045329;28;19946;-76
2022/10/25 08:51:49;;;;;;;;;;;19.30;99.90;;;;;;5067230;28;20374;-79
2022/10/25 08:54:20;;;;;;;;;;;19.80;99.90;;;;;;5062860;28;19931;-83
2022/10/25 08:56:47;;;;;;;;;;;20.70;99.90;;;;;;5046484;28;20001;-81
2022/10/25 08:59:20;;;;;;;;;;;21.40;99.90;;;;;;5045848;28;19920;-80
2022/10/25 09:01:48;;;;;;;;;;;22.20;99.90;;;;;;5064210;28;20019;-79
2022/10/25 09:04:14;;;;;;;;;;;22.50;99.90;;;;;;5045443;28;19925;-79
2022/10/25 09:06:56;;;;;;;;;;;22.10;99.90;;;;;;5062774;28;19924;-78
2022/10/25 09:09:30;;;;;;;;;;;22.20;99.90;;;;;;5044944;28;19943;-79
2022/10/25 09:12:04;;;;;;;;;;;20.60;99.90;;;;;;5064665;28;20265;-81
2022/10/25 09:14:48;;;;;;;;;;;20.30;99.90;;;;;;5063489;28;19925;-77
2022/10/25 09:17:21;;;;;;;;;;;20.40;99.90;;;;;;5063660;28;20007;-77
2022/10/25 09:19:49;;;;;;;;;;;19.90;99.90;;;;;;5045593;28;19928;-76
2022/10/25 09:22:38;;;;;;;;;;;19.40;99.90;;;;;;5064285;28;19925;-76
2022/10/25 09:25:03;;;;;;;;;;;18.90;99.90;;;;;;5065830;28;19924;-79
2022/10/25 09:27:34;;;;;;;;;;;18.20;99.90;;;;;;5062231;28;19928;-77
2022/10/25 09:30:02;;;;;;;;;;;18.00;99.90;;;;;;5063883;28;19928;-79
2022/10/25 09:32:35;;;;;;;;;;;17.60;99.90;;;;;;5063799;28;19943;-78
2022/10/25 09:35:01;;;;;;;;;;;17.80;99.90;;;;;;5063151;28;19925;-79
2022/10/25 09:37:30;;;;;;;;;;;18.90;99.90;;;;;;5045276;28;19963;-78
2022/10/25 09:39:58;;;;;;;;;;;19.60;99.90;;;;;;5062377;28;20342;-80
2022/10/25 09:42:26;;;;;;;;;;;20.70;99.90;;;;;;5044703;28;19920;-79
2022/10/25 09:45:15;;;;;;;;;;;21.50;99.90;;;;;;5062590;28;20011;-77
2022/10/25 09:47:54;;;;;;;;;;;22.40;99.90;;;;;;5062231;28;19920;-78
2022/10/25 09:50:25;;;;;;;;;;;22.60;99.90;;;;;;5062381;28;21427;-79
2022/10/25 09:53:01;;;;;;;;;;;23.00;99.90;;;;;;5050333;28;20291;-78
2022/10/25 09:55:39;;;;;;;;;;;23.40;99.90;;;;;;5060630;28;19921;-81
2022/10/25 09:58:07;;;;;;;;;;;23.60;99.90;;;;;;5062843;28;19920;-79
2022/10/25 10:00:37;;;;;;;;;;;23.40;99.90;;;;;;5060773;28;19928;-76
2022/10/25 10:03:03;;;;;;;;;;;23.40;99.90;;;;;;5048240;28;20015;-76
2022/10/25 10:05:29;;;;;;;;;;;22.60;99.70;;;;;;5044921;28;20007;-77
2022/10/25 10:07:54;;;;;;;;;;;21.50;99.90;;;;;;5057415;28;20015;-73
2022/10/25 10:10:22;;;;;;;;;;;20.90;99.90;;;;;;5044195;28;19920;-74
2022/10/25 10:12:50;;;;;;;;;;;20.50;99.90;;;;;;5042932;28;19925;-74
2022/10/25 10:15:20;;;;;;;;;;;20.00;99.90;;;;;;5063903;28;19920;-74
2022/10/25 10:17:46;;;;;;;;;;;20.10;99.90;;;;;;5060390;28;19928;-73
2022/10/25 10:20:13;;;;;;;;;;;20.90;99.90;;;;;;5045352;28;19931;-73
2022/10/25 10:22:52;;;;;;;;;;;21.90;99.90;;;;;;5060284;28;19921;-74
2022/10/25 10:25:22;;;;;;;;;;;22.50;99.90;;;;;;5065348;28;20411;-73
2022/10/25 10:27:52;;;;;;;;;;;22.30;99.90;;;;;;5063071;28;19959;-73
2022/10/25 10:30:27;;;;;;;;;;;22.90;99.90;;;;;;5040848;28;19999;-73
2022/10/25 10:33:00;;;;;;;;;;;23.10;99.90;;;;;;5041172;28;19920;-74
2022/10/25 10:35:32;;;;;;;;;;;23.50;99.20;;;;;;5042292;28;19932;-73
2022/10/25 10:38:17;;;;;;;;;;;22.90;99.30;;;;;;5038940;28;20003;-74
2022/10/25 10:40:42;;;;;;;;;;;21.70;99.90;;;;;;5060372;28;19974;-73
2022/10/25 10:43:21;;;;;;;;;;;20.50;99.90;;;;;;5045977;28;19924;-73
2022/10/25 10:45:48;;;;;;;;;;;19.90;99.90;;;;;;5043901;28;19974;-76
2022/10/25 10:48:17;;;;;;;;;;;19.20;99.90;;;;;;5047044;28;19968;-79
2022/10/25 10:50:47;;;;;;;;;;;19.00;99.90;;;;;;5039778;28;19944;-75
2022/10/25 10:53:15;;;;;;;;;;;18.90;99.90;;;;;;5065813;28;19924;-79
2022/10/25 10:55:44;;;;;;;;;;;19.40;99.90;;;;;;5072650;28;19921;-81
2022/10/25 10:58:22;;;;;;;;;;;20.00;99.90;;;;;;5068431;28;19967;-77
2022/10/25 11:00:49;;;;;;;;;;;21.10;99.90;;;;;;5043473;28;19925;-74
2022/10/25 11:03:33;;;;;;;;;;;22.40;99.90;;;;;;5062511;28;20375;-72
2022/10/25 11:06:03;;;;;;;;;;;23.10;99.90;;;;;;5063033;28;20007;-71
2022/10/25 11:08:29;;;;;;;;;;;23.80;99.10;;;;;;5059946;28;20323;-71
2022/10/25 11:11:21;;;;;;;;;;;24.20;98.50;;;;;;5041645;28;19921;-73
2022/10/25 11:13:57;;;;;;;;;;;24.20;98.70;;;;;;5036763;28;20323;-71
2022/10/25 11:16:22;;;;;;;;;;;23.30;98.50;;;;;;5061754;28;19957;-72
2022/10/25 11:19:06;;;;;;;;;;;22.40;99.50;;;;;;5063073;28;19976;-72
2022/10/25 11:21:55;;;;;;;;;;;21.50;99.90;;;;;;5042469;28;19926;-71
2022/10/25 11:24:23;;;;;;;;;;;20.60;99.90;;;;;;5062968;28;20070;-71
2022/10/25 11:26:52;;;;;;;;;;;19.90;99.90;;;;;;5045348;28;19928;-73
2022/10/25 11:29:27;;;;;;;;;;;19.30;99.90;;;;;;5044289;28;19920;-71
2022/10/25 11:32:02;;;;;;;;;;;18.90;99.90;;;;;;5062397;28;20288;-76
2022/10/25 11:34:31;;;;;;;;;;;18.30;99.90;;;;;;5042750;28;19927;-74
2022/10/25 11:37:10;;;;;;;;;;;18.30;99.90;;;;;;5059745;28;19930;-74
2022/10/25 11:39:51;;;;;;;;;;;18.00;99.90;;;;;;5046866;28;20005;-74
2022/10/25 11:42:35;;;;;;;;;;;17.80;99.90;;;;;;5059520;28;20014;-71
2022/10/25 11:45:01;;;;;;;;;;;17.70;99.90;;;;;;5059519;28;19928;-73
2022/10/25 11:47:32;;;;;;;;;;;18.30;99.90;;;;;;5061254;28;19920;-73
2022/10/25 11:50:09;;;;;;;;;;;19.50;99.90;;;;;;5042686;28;19959;-74
2022/10/25 11:52:54;;;;;;;;;;;19.80;99.90;;;;;;5047899;28;19925;-74
2022/10/25 11:55:22;;;;;;;;;;;19.40;99.90;;;;;;5048594;28;19979;-74
2022/10/25 11:58:03;;;;;;;;;;;19.80;99.90;;;;;;5047642;28;20024;-75
2022/10/25 12:00:35;;;;;;;;;;;20.60;99.90;;;;;;5046093;28;20388;-74
2022/10/25 12:03:12;;;;;;;;;;;20.80;99.90;;;;;;5063110;28;20311;-75
2022/10/25 12:05:38;;;;;;;;;;;21.20;99.90;;;;;;5068650;28;20007;-75
2022/10/25 12:08:12;;;;;;;;;;;21.10;99.90;;;;;;5067517;28;19974;-74
2022/10/25 12:10:39;;;;;;;;;;;20.50;99.90;;;;;;5065818;28;20335;-73
2022/10/25 12:13:10;;;;;;;;;;;19.80;99.90;;;;;;5067910;28;19920;-74
2022/10/25 12:15:38;;;;;;;;;;;20.00;99.90;;;;;;5065716;28;19966;-74
2022/10/25 12:18:11;;;;;;;;;;;20.60;99.90;;;;;;5045806;28;20376;-73
2022/10/25 12:20:40;;;;;;;;;;;20.70;99.90;;;;;;5044126;28;19978;-74
2022/10/25 12:23:10;;;;;;;;;;;20.60;99.90;;;;;;5066736;28;19956;-73
2022/10/25 12:25:39;;;;;;;;;;;20.50;99.90;;;;;;5068357;28;19920;-71
2022/10/25 12:28:12;;;;;;;;;;;20.00;99.90;;;;;;5065016;28;19921;-74
2022/10/25 12:30:38;;;;;;;;;;;20.00;99.90;;;;;;5061665;28;19928;-72
2022/10/25 12:33:24;;;;;;;;;;;20.20;99.90;;;;;;5048601;28;19920;-74
2022/10/25 12:35:51;;;;;;;;;;;20.50;99.90;;;;;;5032708;28;19931;-72
2022/10/25 12:38:21;;;;;;;;;;;20.00;99.90;;;;;;5063049;28;20401;-73
2022/10/25 12:40:48;;;;;;;;;;;19.50;99.90;;;;;;5045157;28;20366;-73
2022/10/25 12:43:24;;;;;;;;;;;19.10;99.90;;;;;;5045860;28;19924;-73
2022/10/25 12:45:55;;;;;;;;;;;18.70;99.90;;;;;;5063913;28;19924;-74
2022/10/25 12:48:40;;;;;;;;;;;18.60;99.90;;;;;;5044578;28;19974;-73
2022/10/25 12:51:14;;;;;;;;;;;18.30;99.90;;;;;;5066085;28;19945;-73
2022/10/25 12:53:54;;;;;;;;;;;18.20;99.90;;;;;;5060942;28;19975;-75
2022/10/25 12:56:29;;;;;;;;;;;18.20;99.90;;;;;;5046713;28;20285;-76
2022/10/25 12:58:54;;;;;;;;;;;18.40;99.90;;;;;;5047305;28;19920;-76
2022/10/25 13:01:41;;;;;;;;;;;18.70;99.90;;;;;;5052326;28;20674;-75
2022/10/25 13:04:25;;;;;;;;;;;19.00;99.90;;;;;;5046463;28;19920;-73
2022/10/25 13:06:51;;;;;;;;;;;18.80;99.90;;;;;;5061739;28;19924;-71
2022/10/25 13:09:19;;;;;;;;;;;18.50;99.90;;;;;;5046966;28;20046;-71
2022/10/25 13:11:49;;;;;;;;;;;18.40;99.90;;;;;;5063433;28;19948;-70
2022/10/25 13:14:24;;;;;;;;;;;18.30;99.90;;;;;;5042714;28;19928;-71
2022/10/25 13:16:49;;;;;;;;;;;18.40;99.90;;;;;;5061523;28;19963;-71
2022/10/25 13:19:26;;;;;;;;;;;18.50;99.90;;;;;;5049148;28;19956;-70
2022/10/25 13:21:52;;;;;;;;;;;18.40;99.90;;;;;;5045619;28;19924;-69
2022/10/25 13:24:44;;;;;;;;;;;18.40;99.90;;;;;;5060739;28;19927;-67
2022/10/25 13:27:12;;;;;;;;;;;18.30;99.90;;;;;;5037163;28;20015;-68
2022/10/25 13:30:00;;;;;;;;;;;18.00;99.90;;;;;;5046340;28;19924;-67
2022/10/25 13:32:26;;;;;;;;;;;18.10;99.90;;;;;;5041596;28;19920;-68
2022/10/25 13:34:52;;;;;;;;;;;18.20;99.90;;;;;;5046101;28;19969;-70
2022/10/25 13:37:29;;;;;;;;;;;18.10;99.90;;;;;;5060801;28;19920;-68
2022/10/25 13:39:57;;;;;;;;;;;18.20;99.90;;;;;;5061068;28;19925;-67
2022/10/25 13:42:26;;;;;;;;;;;17.90;99.90;;;;;;5045724;28;19920;-67
2022/10/25 13:45:04;;;;;;;;;;;17.60;99.90;;;;;;5046576;28;19927;-68
2022/10/25 13:47:46;;;;;;;;;;;17.40;99.90;;;;;;5061829;28;20300;-69
2022/10/25 13:50:15;;;;;;;;;;;17.50;99.90;;;;;;5061063;28;19921;-68
2022/10/25 13:52:58;;;;;;;;;;;17.70;99.90;;;;;;5063311;28;19928;-69
2022/10/25 13:55:24;;;;;;;;;;;17.80;99.90;;;;;;5042622;28;19956;-68
2022/10/25 13:57:54;;;;;;;;;;;17.70;99.90;;;;;;5045729;28;19967;-69
2022/10/25 14:00:22;;;;;;;;;;;17.60;99.90;;;;;;5047622;28;19932;-68
2022/10/25 14:03:05;;;;;;;;;;;17.30;99.90;;;;;;5063379;28;19920;-68
2022/10/25 14:05:49;;;;;;;;;;;17.20;99.90;;;;;;5061746;28;19921;-68
2022/10/25 14:08:21;;;;;;;;;;;17.10;99.90;;;;;;5044140;28;19924;-69
2022/10/25 14:10:48;;;;;;;;;;;17.20;99.90;;;;;;5045290;28;19961;-71
2022/10/25 14:13:18;;;;;;;;;;;17.20;99.90;;;;;;5059540;28;19925;-69
2022/10/25 14:15:50;;;;;;;;;;;17.20;99.90;;;;;;5046981;28;20000;-69
2022/10/25 14:18:18;;;;;;;;;;;17.30;99.90;;;;;;5042073;28;19924;-71
2022/10/25 14:20:45;;;;;;;;;;;17.30;99.90;;;;;;5062608;28;20335;-71
2022/10/25 14:23:17;;;;;;;;;;;17.20;99.90;;;;;;5060205;28;19947;-70
2022/10/25 14:25:49;;;;;;;;;;;17.20;99.90;;;;;;5059361;28;20395;-70
2022/10/25 14:28:37;;;;;;;;;;;17.10;99.90;;;;;;5060356;28;20449;-69
2022/10/25 14:31:06;;;;;;;;;;;17.10;99.90;;;;;;5066250;28;19920;-71